This is the latest recevied weather packets stored in our database for station/object OK2ZI. If no packets are shown the sender has not sent any weather packets the latest 10 day(s).
| Time | Temp. | Humidity | Pressure | Rain* | Wind** | Luminosity | Snow |
|---|---|---|---|---|---|---|---|
| 1778011457 | 15.56° C | 59% | 1003 hPa | 0 mm | - | - | - |
| 1778011221 | 16.11° C | 58% | 1003 hPa | 0 mm | - | - | - |
| 1778006047 | 18.33° C | 51% | 1002 hPa | 0 mm | - | - | - |
| 1778005447 | 18.33° C | 50% | 1002 hPa | 0 mm | - | - | - |
| 1778003527 | 19.44° C | 47% | 1002 hPa | 0 mm | - | - | - |
| 1778002607 | 20.56° C | 45% | 1002 hPa | 0 mm | - | - | - |
| 1778001847 | 21.11° C | 44% | 1002 hPa | 0 mm | - | - | - |
| 1778001246 | 21.67° C | 42% | 1002 hPa | 0 mm | - | - | - |
| 1777998487 | 25° C | 33% | 1002 hPa | 0 mm | - | - | - |
| 1777998009 | 25.56° C | 31% | 1002 hPa | 0 mm | - | - | - |
| 1777997767 | 25.56° C | 29% | 1002 hPa | 0 mm | - | - | - |
| 1777996927 | 25.56° C | 28% | 1002 hPa | 0 mm | - | - | - |
| 1777996446 | 25.56° C | 27% | 1002 hPa | 0 mm | - | - | - |
| 1777996327 | 25.56° C | 27% | 1002 hPa | 0 mm | - | - | - |
| 1777994647 | 26.11° C | 26% | 1003 hPa | 0 mm | - | - | - |
| 1777993331 | 26.11° C | 28% | 1003 hPa | 0 mm | - | - | - |
| 1777992611 | 26.67° C | 28% | 1003 hPa | 0 mm | - | - | - |
| 1777991167 | 26.67° C | 29% | 1004 hPa | 0 mm | - | - | - |
| 1777990812 | 26.67° C | 28% | 1004 hPa | 0 mm | - | - | - |
| 1777989967 | 26.67° C | 28% | 1004 hPa | 0 mm | - | - | - |
| 1777988165 | 25.56° C | 33% | 1004 hPa | 0 mm | - | - | - |
| 1777986727 | 25.56° C | 33% | 1004 hPa | 0 mm | - | - | - |
| 1777986612 | 25.56° C | 33% | 1005 hPa | 0 mm | - | - | - |
| 1777983366 | 25° C | 37% | 1005 hPa | 0 mm | - | - | - |
| 1777981086 | 24.44° C | 38% | 1005 hPa | 0 mm | - | - | - |
* Rain latest hour (hover to see other rain measurements)
** Current wind speed in m/s (hover to see current wind gust speed)